createdAt,value
2019-02-22T00:00:55.925Z,85.00
2019-02-22T00:03:22.160Z,85.50
2019-02-22T00:05:48.424Z,85.80
2019-02-22T00:08:16.346Z,85.90
2019-02-22T00:10:42.828Z,87.10
2019-02-22T00:13:09.447Z,87.80
2019-02-22T00:15:36.413Z,87.60
2019-02-22T00:18:07.851Z,87.50
2019-02-22T00:20:34.528Z,87.70
2019-02-22T00:23:01.219Z,87.20
2019-02-22T00:25:30.064Z,87.20
2019-02-22T00:27:56.311Z,87.10
2019-02-22T00:30:24.753Z,87.10
2019-02-22T00:32:51.365Z,86.70
2019-02-22T00:35:17.654Z,86.80
2019-02-22T00:37:44.732Z,86.50
2019-02-22T00:40:13.900Z,86.40
2019-02-22T00:42:40.154Z,86.40
2019-02-22T00:45:08.511Z,86.80
2019-02-22T00:47:36.668Z,86.90
2019-02-22T00:50:05.100Z,86.90
2019-02-22T00:52:31.516Z,87.00
2019-02-22T00:54:57.664Z,87.30
2019-02-22T00:57:24.096Z,87.80
2019-02-22T00:59:50.418Z,87.50
2019-02-22T01:02:16.827Z,87.50
2019-02-22T01:04:43.269Z,87.70
2019-02-22T01:07:09.849Z,87.60
2019-02-22T01:09:36.177Z,87.50
2019-02-22T01:12:05.784Z,87.90
2019-02-22T01:14:32.435Z,87.90
2019-02-22T01:17:02.379Z,87.70
2019-02-22T01:19:29.300Z,87.70
2019-02-22T01:21:55.700Z,88.30
2019-02-22T01:24:22.024Z,88.40
2019-02-22T01:26:50.578Z,88.40
2019-02-22T01:29:16.702Z,88.70
2019-02-22T01:31:43.169Z,88.80
2019-02-22T01:34:11.663Z,88.70
2019-02-22T01:36:38.299Z,88.20
2019-02-22T01:39:08.160Z,88.30
2019-02-22T01:41:37.033Z,88.40
2019-02-22T01:44:03.356Z,88.80
2019-02-22T01:46:29.889Z,89.00
2019-02-22T01:48:56.136Z,89.30
2019-02-22T01:51:22.420Z,89.20
2019-02-22T01:53:53.888Z,89.30
2019-02-22T01:56:19.559Z,89.70
2019-02-22T01:58:48.944Z,89.40
2019-02-22T02:01:14.954Z,89.60
2019-02-22T02:03:41.315Z,90.00
2019-02-22T02:06:07.658Z,90.10
2019-02-22T02:08:36.722Z,90.20
2019-02-22T02:11:03.197Z,90.30
2019-02-22T02:13:30.277Z,90.40
2019-02-22T02:15:56.755Z,90.40
2019-02-22T02:18:23.006Z,90.50
2019-02-22T02:20:52.757Z,90.50
2019-02-22T02:23:19.053Z,90.50
2019-02-22T02:25:46.098Z,90.40
2019-02-22T02:28:12.477Z,90.50
2019-02-22T02:30:40.254Z,90.50
2019-02-22T02:33:11.266Z,90.60
2019-02-22T02:35:40.024Z,90.50
2019-02-22T02:38:08.173Z,90.70
2019-02-22T02:40:34.424Z,91.10
2019-02-22T02:43:00.778Z,91.00
2019-02-22T02:45:27.546Z,91.10
2019-02-22T02:47:56.052Z,91.20
2019-02-22T02:50:22.450Z,91.70
2019-02-22T02:52:48.734Z,91.70
2019-02-22T02:55:30.039Z,91.90
2019-02-22T02:57:56.319Z,92.00
2019-02-22T03:00:23.281Z,92.50
2019-02-22T03:02:50.011Z,92.60
2019-02-22T03:05:17.223Z,92.60
2019-02-22T03:07:44.943Z,92.80
2019-02-22T03:10:11.505Z,92.50
2019-02-22T03:12:37.934Z,92.60
2019-02-22T03:15:09.640Z,93.10
2019-02-22T03:17:38.178Z,93.00
2019-02-22T03:20:09.678Z,93.10
2019-02-22T03:22:36.723Z,93.20
2019-02-22T03:25:06.123Z,93.30
2019-02-22T03:27:32.906Z,93.70
2019-02-22T03:29:59.129Z,93.90
2019-02-22T03:32:25.536Z,94.30
2019-02-22T03:34:51.792Z,94.60
2019-02-22T03:37:18.621Z,94.50
2019-02-22T03:39:44.833Z,94.50
2019-02-22T03:42:11.024Z,94.60
2019-02-22T03:44:37.642Z,94.90
2019-02-22T03:47:04.048Z,94.90
2019-02-22T03:49:30.306Z,95.10
2019-02-22T03:51:57.488Z,94.80
2019-02-22T03:54:24.361Z,94.70
2019-02-22T03:56:51.230Z,94.90
2019-02-22T03:59:23.538Z,94.90
2019-02-22T04:01:49.471Z,95.10
2019-02-22T04:04:16.143Z,94.90
2019-02-22T04:06:42.805Z,94.70
2019-02-22T04:09:09.666Z,94.80
2019-02-22T04:11:45.014Z,95.30
2019-02-22T04:14:08.296Z,95.10
2019-02-22T04:16:37.106Z,95.30
2019-02-22T04:19:03.307Z,96.30
2019-02-22T04:21:32.920Z,96.60
2019-02-22T04:24:02.452Z,96.80
2019-02-22T04:26:28.652Z,96.60
2019-02-22T04:28:54.779Z,96.70
2019-02-22T04:31:21.176Z,97.00
2019-02-22T04:33:49.180Z,97.30
2019-02-22T04:36:16.030Z,97.40
2019-02-22T04:38:42.361Z,97.10
2019-02-22T04:41:10.945Z,97.30
2019-02-22T04:43:37.628Z,97.10
2019-02-22T04:46:04.084Z,97.20
2019-02-22T04:48:30.354Z,97.00
2019-02-22T04:50:56.576Z,97.30
2019-02-22T04:53:22.939Z,97.30
2019-02-22T04:55:49.212Z,97.10
2019-02-22T04:58:15.820Z,97.20
2019-02-22T05:00:42.062Z,97.60
2019-02-22T05:03:08.510Z,97.80
2019-02-22T05:05:34.850Z,97.90
2019-02-22T05:08:01.119Z,97.90
2019-02-22T05:10:28.131Z,97.80
2019-02-22T05:12:54.399Z,97.80
2019-02-22T05:15:21.360Z,97.90
2019-02-22T05:17:47.889Z,98.40
2019-02-22T05:20:14.107Z,98.40
2019-02-22T05:22:40.385Z,98.70
2019-02-22T05:25:06.833Z,99.00
2019-02-22T05:27:33.220Z,99.90
2019-02-22T05:29:59.604Z,99.90
2019-02-22T05:32:26.057Z,99.90
2019-02-22T05:34:52.649Z,99.90
2019-02-22T05:37:19.025Z,99.90
2019-02-22T05:39:47.571Z,99.90
2019-02-22T05:42:22.892Z,99.90
2019-02-22T05:44:44.320Z,99.90
2019-02-22T05:47:10.557Z,99.90
2019-02-22T05:49:38.527Z,99.90
2019-02-22T05:52:09.547Z,99.90
2019-02-22T05:54:36.225Z,99.90
2019-02-22T05:57:03.170Z,99.90
2019-02-22T05:59:30.113Z,99.90
2019-02-22T06:01:58.853Z,99.90
2019-02-22T06:04:27.111Z,99.90
2019-02-22T06:06:53.864Z,99.90
2019-02-22T06:09:20.427Z,99.90
2019-02-22T06:11:46.979Z,99.90
2019-02-22T06:14:13.752Z,99.90
2019-02-22T06:16:41.985Z,99.90
2019-02-22T06:19:09.128Z,99.90
2019-02-22T06:21:38.606Z,99.90
2019-02-22T06:24:04.057Z,99.90
2019-02-22T06:26:30.603Z,99.90
2019-02-22T06:28:57.469Z,99.90
2019-02-22T06:31:24.712Z,99.90
2019-02-22T06:33:51.784Z,99.90
2019-02-22T06:36:18.746Z,99.90
2019-02-22T06:38:47.588Z,99.90
2019-02-22T06:41:15.736Z,99.90
2019-02-22T06:43:42.148Z,99.90
2019-02-22T06:46:09.432Z,99.90
2019-02-22T06:48:37.186Z,99.90
2019-02-22T06:51:05.681Z,99.90
2019-02-22T06:53:33.827Z,99.90
2019-02-22T06:56:00.051Z,99.90
2019-02-22T06:58:26.400Z,99.90
2019-02-22T07:00:59.175Z,99.90
2019-02-22T07:03:26.786Z,99.90
2019-02-22T07:05:53.287Z,99.90
2019-02-22T07:08:19.647Z,99.90
2019-02-22T07:10:57.039Z,99.90
2019-02-22T07:13:26.289Z,99.90
2019-02-22T07:15:55.424Z,99.90
2019-02-22T07:18:21.576Z,99.90
2019-02-22T07:20:53.274Z,99.90
2019-02-22T07:23:19.803Z,99.90
2019-02-22T07:25:47.088Z,99.90
2019-02-22T07:28:15.916Z,99.90
2019-02-22T07:30:50.900Z,99.90
2019-02-22T07:33:17.517Z,99.90
2019-02-22T07:35:47.184Z,99.90
2019-02-22T07:38:13.767Z,99.90
2019-02-22T07:40:40.498Z,99.90
2019-02-22T07:43:08.365Z,99.90
2019-02-22T07:45:34.711Z,99.90
2019-02-22T07:48:01.028Z,99.90
2019-02-22T07:50:27.403Z,99.90
2019-02-22T07:52:53.834Z,99.90
2019-02-22T07:55:20.590Z,99.90
2019-02-22T07:57:47.087Z,99.90
2019-02-22T08:00:17.790Z,99.90
2019-02-22T08:02:44.867Z,99.90
2019-02-22T08:05:15.202Z,99.90
2019-02-22T08:07:41.566Z,99.90
2019-02-22T08:12:51.148Z,99.90
2019-02-22T08:15:23.746Z,99.90
2019-02-22T08:17:50.877Z,99.90
2019-02-22T08:20:21.972Z,99.90
2019-02-22T08:22:49.405Z,99.90
2019-02-22T08:25:20.506Z,99.90
2019-02-22T08:27:53.754Z,99.90
2019-02-22T08:30:16.387Z,99.90
2019-02-22T08:32:45.739Z,99.90
2019-02-22T08:35:14.822Z,99.90
2019-02-22T08:37:41.096Z,99.90
2019-02-22T08:40:08.853Z,99.90
2019-02-22T08:42:35.276Z,99.90
2019-02-22T08:45:05.492Z,99.90
2019-02-22T08:47:40.894Z,99.90
2019-02-22T08:50:07.456Z,99.90
2019-02-22T08:52:34.115Z,99.90
2019-02-22T08:55:03.171Z,99.90
2019-02-22T08:57:33.586Z,99.90
2019-02-22T09:00:03.525Z,99.90
2019-02-22T09:02:32.427Z,99.90
2019-02-22T09:04:58.782Z,99.90
2019-02-22T09:07:30.149Z,99.90
2019-02-22T09:10:02.033Z,99.90
2019-02-22T09:12:29.515Z,99.90
2019-02-22T09:14:56.734Z,99.90
2019-02-22T09:17:23.117Z,99.90
2019-02-22T09:19:49.388Z,99.90
2019-02-22T09:22:22.762Z,99.90
2019-02-22T09:24:48.143Z,99.90
2019-02-22T09:27:16.778Z,99.90
2019-02-22T09:29:58.156Z,99.90
2019-02-22T09:32:15.054Z,99.90
2019-02-22T09:34:41.949Z,99.90
2019-02-22T09:37:08.270Z,99.90
2019-02-22T09:39:37.758Z,99.90
2019-02-22T09:42:04.169Z,99.90
2019-02-22T09:44:30.721Z,99.90
2019-02-22T09:46:57.614Z,99.90
2019-02-22T09:49:23.874Z,99.90
2019-02-22T09:51:58.465Z,99.90
2019-02-22T09:54:24.730Z,99.90
2019-02-22T09:56:51.169Z,99.90
2019-02-22T09:59:23.435Z,99.90
2019-02-22T10:01:52.180Z,99.90
2019-02-22T10:04:22.170Z,99.90
2019-02-22T10:06:51.342Z,99.90
2019-02-22T10:09:18.385Z,99.90
2019-02-22T10:11:44.735Z,99.90
2019-02-22T10:14:12.212Z,99.90
2019-02-22T10:16:38.490Z,99.90
2019-02-22T10:19:04.809Z,99.60
2019-02-22T10:21:31.028Z,99.40
2019-02-22T10:23:57.245Z,99.60
2019-02-22T10:26:26.193Z,98.60
2019-02-22T10:28:52.645Z,99.20
2019-02-22T10:31:19.038Z,98.70
2019-02-22T10:33:45.330Z,98.10
2019-02-22T10:36:11.540Z,97.70
2019-02-22T10:38:38.294Z,96.90
2019-02-22T10:41:04.612Z,96.10
2019-02-22T10:43:32.669Z,95.50
2019-02-22T10:45:59.036Z,95.20
2019-02-22T10:48:25.378Z,95.00
2019-02-22T10:50:51.693Z,95.30
2019-02-22T10:53:18.602Z,95.40
2019-02-22T10:55:50.063Z,94.90
2019-02-22T10:58:18.857Z,95.00
2019-02-22T11:00:45.149Z,94.60
2019-02-22T11:03:11.382Z,94.50
2019-02-22T11:05:37.717Z,94.40
2019-02-22T11:08:04.105Z,94.80
2019-02-22T11:10:30.362Z,94.20
2019-02-22T11:12:56.735Z,93.40
2019-02-22T11:15:22.950Z,92.50
2019-02-22T11:17:49.173Z,92.50
2019-02-22T11:20:15.447Z,92.70
2019-02-22T11:22:41.667Z,92.50
2019-02-22T11:25:15.607Z,92.70
2019-02-22T11:27:41.858Z,93.20
2019-02-22T11:30:10.680Z,92.80
2019-02-22T11:32:36.941Z,92.70
2019-02-22T11:35:04.770Z,92.70
2019-02-22T11:37:30.959Z,92.90
2019-02-22T11:39:57.217Z,92.20
2019-02-22T11:42:23.446Z,91.90
2019-02-22T11:44:49.603Z,91.40
2019-02-22T11:47:15.778Z,91.70
2019-02-22T11:49:41.911Z,91.50
2019-02-22T11:52:08.193Z,90.50
2019-02-22T11:54:34.555Z,89.60
2019-02-22T11:57:00.921Z,88.60
2019-02-22T11:59:27.167Z,88.10
2019-02-22T12:01:53.549Z,87.70
2019-02-22T12:04:19.762Z,88.80
2019-02-22T12:06:45.900Z,87.10
2019-02-22T12:09:12.310Z,86.60
2019-02-22T12:11:38.644Z,84.50
2019-02-22T12:14:06.850Z,85.70
2019-02-22T12:16:35.542Z,83.10
2019-02-22T12:19:01.823Z,82.80
2019-02-22T12:21:28.201Z,83.80
2019-02-22T12:23:56.111Z,82.20
2019-02-22T12:26:22.741Z,79.10
2019-02-22T12:28:49.073Z,79.60
2019-02-22T12:31:15.568Z,78.50
2019-02-22T12:33:41.775Z,74.20
2019-02-22T12:36:09.678Z,76.00
2019-02-22T12:38:36.117Z,72.60
2019-02-22T12:41:02.544Z,70.50
2019-02-22T12:43:31.793Z,72.20
2019-02-22T12:45:58.069Z,70.60
2019-02-22T12:48:25.871Z,71.50
2019-02-22T12:50:54.755Z,69.80
2019-02-22T12:53:21.023Z,71.70
2019-02-22T12:55:47.262Z,68.90
2019-02-22T12:58:13.428Z,69.60
2019-02-22T13:00:39.789Z,69.10
2019-02-22T13:03:06.079Z,67.60
2019-02-22T13:05:32.724Z,67.10
2019-02-22T13:07:58.935Z,65.70
2019-02-22T13:10:25.200Z,64.50
2019-02-22T13:12:51.337Z,65.40
2019-02-22T13:15:17.459Z,65.30
2019-02-22T13:17:43.603Z,65.60
2019-02-22T13:20:09.931Z,66.50
2019-02-22T13:22:36.477Z,69.00
2019-02-22T13:25:05.263Z,68.50
2019-02-22T13:27:31.499Z,67.50
2019-02-22T13:29:57.854Z,67.80
2019-02-22T13:32:24.245Z,68.30
2019-02-22T13:34:50.454Z,67.90
2019-02-22T13:37:16.792Z,68.20
2019-02-22T13:39:43.044Z,67.20
2019-02-22T13:42:09.567Z,67.90
2019-02-22T13:44:38.437Z,68.40
2019-02-22T13:47:04.914Z,67.90
2019-02-22T13:49:31.282Z,68.70
2019-02-22T13:51:57.407Z,67.10
2019-02-22T13:54:23.538Z,69.10
2019-02-22T13:56:49.733Z,68.50
2019-02-22T13:59:16.440Z,68.20
2019-02-22T14:01:42.822Z,67.60
2019-02-22T14:04:09.041Z,67.70
2019-02-22T14:06:35.293Z,68.00
2019-02-22T14:09:01.526Z,68.20
2019-02-22T14:11:27.810Z,68.50
2019-02-22T14:13:54.176Z,68.00
2019-02-22T14:16:20.342Z,68.70
2019-02-22T14:18:46.522Z,68.80
2019-02-22T14:21:12.821Z,68.20
2019-02-22T14:23:39.022Z,66.70
2019-02-22T14:26:05.302Z,66.40
2019-02-22T14:28:31.430Z,64.90
2019-02-22T14:30:57.563Z,65.00
2019-02-22T14:33:23.825Z,65.70
2019-02-22T14:35:50.077Z,66.40
2019-02-22T14:38:16.497Z,66.40
2019-02-22T14:40:42.816Z,66.30
2019-02-22T14:43:16.528Z,66.20
2019-02-22T14:45:37.061Z,66.10
2019-02-22T14:48:03.335Z,66.30
2019-02-22T14:50:29.490Z,65.40
2019-02-22T14:52:56.051Z,66.10
2019-02-22T14:55:22.313Z,66.20
2019-02-22T14:57:48.600Z,65.70
2019-02-22T15:00:17.908Z,66.20
2019-02-22T15:02:44.332Z,65.70
2019-02-22T15:05:11.891Z,66.00
2019-02-22T15:07:40.552Z,64.70
2019-02-22T15:10:08.186Z,64.70
2019-02-22T15:12:34.648Z,65.50
2019-02-22T15:15:01.002Z,65.10
2019-02-22T15:17:29.189Z,64.80
2019-02-22T15:19:55.554Z,65.00
2019-02-22T15:22:21.772Z,64.90
2019-02-22T15:24:47.903Z,65.20
2019-02-22T15:27:14.066Z,65.30
2019-02-22T15:29:40.623Z,65.20
2019-02-22T15:32:06.930Z,64.90
2019-02-22T15:34:33.182Z,64.30
2019-02-22T15:36:59.534Z,63.40
2019-02-22T15:39:25.888Z,62.10
2019-02-22T15:41:52.124Z,61.70
2019-02-22T15:44:18.650Z,62.90
2019-02-22T15:46:44.880Z,62.90
2019-02-22T15:49:11.026Z,62.50
2019-02-22T15:51:37.384Z,63.20
2019-02-22T15:54:03.613Z,63.70
2019-02-22T15:56:29.857Z,63.80
2019-02-22T15:58:58.509Z,63.00
2019-02-22T16:01:24.750Z,63.30
2019-02-22T16:04:01.901Z,63.00
2019-02-22T16:06:28.058Z,63.60
2019-02-22T16:08:54.283Z,63.70
2019-02-22T16:11:20.460Z,63.40
2019-02-22T16:13:47.046Z,63.40
2019-02-22T16:16:23.017Z,63.60
2019-02-22T16:18:41.730Z,63.80
2019-02-22T16:21:08.047Z,64.50
2019-02-22T16:23:34.268Z,65.40
2019-02-22T16:26:00.513Z,65.80
2019-02-22T16:28:26.725Z,65.90
2019-02-22T16:30:53.214Z,65.80
2019-02-22T16:33:19.575Z,65.70
2019-02-22T16:35:46.060Z,65.60
2019-02-22T16:38:15.052Z,66.20
2019-02-22T16:40:47.112Z,66.10
2019-02-22T16:43:16.644Z,66.10
2019-02-22T16:45:42.876Z,66.40
2019-02-22T16:48:09.115Z,66.80
2019-02-22T16:50:39.721Z,67.00
2019-02-22T16:53:10.342Z,67.00
2019-02-22T16:55:36.825Z,66.90
2019-02-22T16:58:03.199Z,66.60
2019-02-22T17:00:29.510Z,66.60
2019-02-22T17:02:55.836Z,66.70
2019-02-22T17:05:22.265Z,67.20
2019-02-22T17:07:48.653Z,67.90
2019-02-22T17:10:14.974Z,67.80
2019-02-22T17:12:41.303Z,68.30
2019-02-22T17:15:10.086Z,68.40
2019-02-22T17:17:36.526Z,68.40
2019-02-22T17:20:06.083Z,68.70
2019-02-22T17:22:32.504Z,68.90
2019-02-22T17:24:58.663Z,69.20
2019-02-22T17:27:24.994Z,69.60
2019-02-22T17:29:51.223Z,69.60
2019-02-22T17:32:17.494Z,69.90
2019-02-22T17:34:45.526Z,69.90
2019-02-22T17:37:11.770Z,70.10
2019-02-22T17:39:38.056Z,70.20
2019-02-22T17:42:04.259Z,70.40
2019-02-22T17:44:30.677Z,70.80
2019-02-22T17:46:57.974Z,71.80
2019-02-22T17:49:24.280Z,71.20
2019-02-22T17:51:50.553Z,71.20
2019-02-22T17:54:16.789Z,71.30
2019-02-22T17:56:43.147Z,71.20
2019-02-22T17:59:09.517Z,71.30
2019-02-22T18:01:35.706Z,71.20
2019-02-22T18:04:02.041Z,71.30
2019-02-22T18:06:28.379Z,71.60
2019-02-22T18:08:54.674Z,71.80
2019-02-22T18:11:20.924Z,71.80
2019-02-22T18:13:47.083Z,71.80
2019-02-22T18:16:13.322Z,71.90
2019-02-22T18:18:39.464Z,71.80
2019-02-22T18:21:05.803Z,72.00
2019-02-22T18:23:32.155Z,72.00
2019-02-22T18:25:58.401Z,72.10
2019-02-22T18:28:24.739Z,72.50
2019-02-22T18:30:50.983Z,72.30
2019-02-22T18:33:17.228Z,71.70
2019-02-22T18:35:43.409Z,72.60
2019-02-22T18:38:09.624Z,72.10
2019-02-22T18:40:35.969Z,71.70
2019-02-22T18:43:02.295Z,71.60
2019-02-22T18:45:28.672Z,71.60
2019-02-22T18:47:54.913Z,71.70
2019-02-22T18:50:21.381Z,71.50
2019-02-22T18:52:48.075Z,71.60
2019-02-22T18:55:14.377Z,71.80
2019-02-22T18:57:40.989Z,72.60
2019-02-22T19:00:10.866Z,74.10
2019-02-22T19:02:37.518Z,74.40
2019-02-22T19:05:05.769Z,75.40
2019-02-22T19:07:32.066Z,76.90
2019-02-22T19:09:58.310Z,77.80
2019-02-22T19:12:24.556Z,77.50
2019-02-22T19:14:50.883Z,77.30
2019-02-22T19:17:17.282Z,77.80
2019-02-22T19:19:43.426Z,77.20
2019-02-22T19:22:10.755Z,76.60
2019-02-22T19:24:42.896Z,76.40
2019-02-22T19:27:12.369Z,76.80
2019-02-22T19:29:42.490Z,76.90
2019-02-22T19:32:13.373Z,77.10
2019-02-22T19:34:41.839Z,76.70
2019-02-22T19:37:11.235Z,76.30
2019-02-22T19:39:37.486Z,76.20
2019-02-22T19:42:03.859Z,75.70
2019-02-22T19:44:30.079Z,76.10
2019-02-22T19:46:58.346Z,76.30
2019-02-22T19:49:30.396Z,76.00
2019-02-22T19:51:59.752Z,76.40
2019-02-22T19:54:25.924Z,75.60
2019-02-22T19:56:54.655Z,76.30
2019-02-22T19:59:23.709Z,77.80
2019-02-22T20:01:53.231Z,78.60
2019-02-22T20:04:24.012Z,78.00
2019-02-22T20:06:50.404Z,77.10
2019-02-22T20:09:19.332Z,76.90
2019-02-22T20:11:48.526Z,76.70
2019-02-22T20:14:18.904Z,76.60
2019-02-22T20:16:45.174Z,78.40
2019-02-22T20:19:11.413Z,78.80
2019-02-22T20:21:37.963Z,78.50
2019-02-22T20:24:07.954Z,78.00
2019-02-22T20:26:36.492Z,77.80
2019-02-22T20:29:03.846Z,77.90
2019-02-22T20:31:30.151Z,79.00
2019-02-22T20:33:57.032Z,80.00
2019-02-22T20:36:28.673Z,80.40
2019-02-22T20:38:56.933Z,80.90
2019-02-22T20:41:23.809Z,79.40
2019-02-22T20:43:52.955Z,78.40
2019-02-22T20:46:19.197Z,78.50
2019-02-22T20:48:45.419Z,78.60
2019-02-22T20:51:14.578Z,78.90
2019-02-22T20:53:42.461Z,79.00
2019-02-22T20:56:11.385Z,78.80
2019-02-22T20:58:40.203Z,78.20
2019-02-22T21:01:14.755Z,78.70
2019-02-22T21:03:46.624Z,79.30
2019-02-22T21:06:12.859Z,79.10
2019-02-22T21:08:41.744Z,78.50
2019-02-22T21:11:13.611Z,78.90
2019-02-22T21:13:40.590Z,79.90
2019-02-22T21:16:11.832Z,80.20
2019-02-22T21:18:38.262Z,81.00
2019-02-22T21:21:04.694Z,80.50
2019-02-22T21:23:30.906Z,81.20
2019-02-22T21:25:57.145Z,80.80
2019-02-22T21:28:23.878Z,81.10
2019-02-22T21:30:50.246Z,81.80
2019-02-22T21:33:16.699Z,82.50
2019-02-22T21:35:43.206Z,82.50
2019-02-22T21:38:10.148Z,82.30
2019-02-22T21:40:36.996Z,82.90
2019-02-22T21:43:03.314Z,82.30
2019-02-22T21:45:29.798Z,82.60
2019-02-22T21:47:55.933Z,83.50
2019-02-22T21:50:22.194Z,84.40
2019-02-22T21:52:48.423Z,85.00
2019-02-22T21:55:14.944Z,85.90
2019-02-22T21:57:41.302Z,90.20
2019-02-22T22:00:24.574Z,93.00
2019-02-22T22:02:50.763Z,94.00
2019-02-22T22:05:17.120Z,96.20
2019-02-22T22:07:43.527Z,96.40
2019-02-22T22:10:09.981Z,96.80
2019-02-22T22:12:36.228Z,96.50
2019-02-22T22:15:05.462Z,96.50
2019-02-22T22:17:31.716Z,96.40
2019-02-22T22:19:57.969Z,95.90
2019-02-22T22:22:24.326Z,95.70
2019-02-22T22:24:50.588Z,95.90
2019-02-22T22:27:16.910Z,96.00
2019-02-22T22:29:43.040Z,95.80
2019-02-22T22:32:09.300Z,96.00
2019-02-22T22:34:35.603Z,95.90
2019-02-22T22:37:01.992Z,96.10
2019-02-22T22:39:28.223Z,96.00
2019-02-22T22:41:54.634Z,96.10
2019-02-22T22:44:20.858Z,96.00
2019-02-22T22:46:47.181Z,96.10
2019-02-22T22:49:13.532Z,95.90
2019-02-22T22:51:39.795Z,94.20
2019-02-22T22:54:05.965Z,95.30
2019-02-22T22:56:32.278Z,96.30
2019-02-22T22:58:58.536Z,96.70
2019-02-22T23:01:24.983Z,97.00
2019-02-22T23:03:51.371Z,97.00
2019-02-22T23:06:17.805Z,96.90
2019-02-22T23:08:44.321Z,96.90
2019-02-22T23:11:10.487Z,96.90
2019-02-22T23:13:36.776Z,96.70
2019-02-22T23:16:04.832Z,96.70
2019-02-22T23:18:31.218Z,96.70
2019-02-22T23:20:59.262Z,96.80
2019-02-22T23:23:26.515Z,96.80
2019-02-22T23:25:52.977Z,96.80
2019-02-22T23:28:19.231Z,96.70
2019-02-22T23:30:45.358Z,96.80
2019-02-22T23:33:19.747Z,96.80
2019-02-22T23:35:45.951Z,96.90
2019-02-22T23:38:17.109Z,97.20
2019-02-22T23:40:43.442Z,97.00
2019-02-22T23:43:09.625Z,97.00
2019-02-22T23:45:35.988Z,97.00
2019-02-22T23:48:02.300Z,97.10
2019-02-22T23:50:34.758Z,97.10
2019-02-22T23:53:00.977Z,97.00
2019-02-22T23:55:27.259Z,97.10
2019-02-22T23:57:53.590Z,97.10
